Time;durP1;ratioP1;P1;durP2;ratioP2;P2;SDS_P1;SDS_P2;PMS_P1;PMS_P2;Temp;Humidity;BMP_temperature;BMP_pressure;BME280_temperature;BME280_humidity;BME280_pressure;Samples;Min_cycle;Max_cycle;Signal;HPM_P1;HPM_P2
2023/08/20 00:01:58;;;;;;;17.42;8.57;;;17.70;99.90;;;;;;5068171;28;20044;-57
2023/08/20 00:04:26;;;;;;;21.65;9.57;;;17.70;99.90;;;;;;5074988;28;20047;-57
2023/08/20 00:06:52;;;;;;;20.02;9.68;;;17.70;99.90;;;;;;5065469;28;20059;-57
2023/08/20 00:09:17;;;;;;;14.85;8.77;;;17.60;99.90;;;;;;5078693;28;20035;-57
2023/08/20 00:11:43;;;;;;;14.68;7.95;;;17.60;99.90;;;;;;5083284;28;20028;-57
2023/08/20 00:14:16;;;;;;;11.23;8.38;;;17.60;99.90;;;;;;5083062;28;20048;-57
2023/08/20 00:16:42;;;;;;;16.55;8.63;;;17.60;99.90;;;;;;5081854;28;20029;-56
2023/08/20 00:19:09;;;;;;;14.25;8.75;;;17.50;99.90;;;;;;5080797;28;20719;-57
2023/08/20 00:21:35;;;;;;;17.65;8.13;;;17.50;99.90;;;;;;5078714;28;20052;-57
2023/08/20 00:24:01;;;;;;;19.15;8.00;;;17.50;99.90;;;;;;5086636;28;20044;-57
2023/08/20 00:26:27;;;;;;;15.70;8.50;;;17.50;99.90;;;;;;5101011;28;20082;-57
2023/08/20 00:28:53;;;;;;;15.60;8.85;;;17.50;99.90;;;;;;5096265;28;20045;-57
2023/08/20 00:31:19;;;;;;;19.35;9.70;;;17.50;99.90;;;;;;5081897;28;20090;-57
2023/08/20 00:33:44;;;;;;;18.90;9.05;;;17.50;99.90;;;;;;5089097;28;20036;-57
2023/08/20 00:36:10;;;;;;;16.02;8.65;;;17.40;99.90;;;;;;5075634;28;20076;-57
2023/08/20 00:38:36;;;;;;;14.68;8.45;;;17.40;99.90;;;;;;5080689;28;20107;-57
2023/08/20 00:41:01;;;;;;;20.95;9.50;;;17.40;99.90;;;;;;5080685;28;20044;-57
2023/08/20 00:43:27;;;;;;;13.65;8.45;;;17.40;99.90;;;;;;5080352;28;20102;-57
2023/08/20 00:45:53;;;;;;;16.88;8.55;;;17.30;99.90;;;;;;5063897;28;20052;-58
2023/08/20 00:48:19;;;;;;;16.73;8.77;;;17.30;99.90;;;;;;5070384;28;20051;-57
2023/08/20 00:50:45;;;;;;;14.45;8.68;;;17.30;99.90;;;;;;5080678;28;20223;-57
2023/08/20 00:53:13;;;;;;;18.92;9.23;;;17.30;99.90;;;;;;5092836;28;20103;-57
2023/08/20 00:55:38;;;;;;;16.10;8.73;;;17.20;99.90;;;;;;5092852;28;20090;-57
2023/08/20 00:58:05;;;;;;;14.48;8.95;;;17.20;99.90;;;;;;5079991;28;20044;-57
2023/08/20 01:00:30;;;;;;;14.88;9.20;;;17.10;99.90;;;;;;5065572;28;20036;-57
2023/08/20 01:02:56;;;;;;;19.58;9.63;;;17.10;99.90;;;;;;5074369;28;20096;-57
2023/08/20 01:05:22;;;;;;;13.18;9.55;;;17.10;99.90;;;;;;5059819;28;20051;-56
2023/08/20 01:08:19;;;;;;;15.90;9.48;;;17.10;99.90;;;;;;5054607;28;20037;-56
2023/08/20 01:10:58;;;;;;;15.60;9.07;;;17.10;99.90;;;;;;5079048;28;20069;-57
2023/08/20 01:13:24;;;;;;;19.58;9.27;;;17.00;99.90;;;;;;5053095;28;20049;-56
2023/08/20 01:15:50;;;;;;;15.50;9.52;;;17.00;99.90;;;;;;5053650;28;20103;-58
2023/08/20 01:18:15;;;;;;;15.27;9.27;;;16.90;99.90;;;;;;5053207;28;20052;-57
2023/08/20 01:20:52;;;;;;;15.40;9.35;;;16.90;99.90;;;;;;5057420;28;20044;-57
2023/08/20 01:23:32;;;;;;;16.55;8.95;;;16.90;99.90;;;;;;5053516;28;20044;-57
2023/08/20 01:26:04;;;;;;;13.32;8.63;;;16.90;99.90;;;;;;5051674;28;20041;-58
2023/08/20 01:28:31;;;;;;;14.02;9.02;;;16.90;99.90;;;;;;5054094;28;20057;-57
2023/08/20 01:30:59;;;;;;;14.48;8.52;;;16.90;99.90;;;;;;5076835;28;20036;-57
2023/08/20 01:33:25;;;;;;;11.30;8.65;;;16.90;99.90;;;;;;5073292;28;20053;-57
2023/08/20 01:35:51;;;;;;;19.40;8.80;;;16.80;99.90;;;;;;5071566;28;20051;-57
2023/08/20 01:38:17;;;;;;;13.38;8.18;;;16.80;99.90;;;;;;5077509;28;20096;-57
2023/08/20 01:40:43;;;;;;;15.32;8.88;;;16.80;99.90;;;;;;5081171;28;20463;-58
2023/08/20 01:43:09;;;;;;;11.43;7.82;;;16.80;99.90;;;;;;5093639;28;20036;-57
2023/08/20 01:45:34;;;;;;;13.00;7.90;;;16.70;99.90;;;;;;5076479;28;20048;-57
2023/08/20 01:48:00;;;;;;;12.00;7.82;;;16.70;99.90;;;;;;5072951;28;20044;-56
2023/08/20 01:50:26;;;;;;;14.15;8.20;;;16.70;99.90;;;;;;5075654;28;20040;-57
2023/08/20 01:52:51;;;;;;;12.40;8.10;;;16.70;99.90;;;;;;5081117;28;20037;-57
2023/08/20 01:55:17;;;;;;;16.23;8.18;;;16.70;99.90;;;;;;5077101;28;21400;-57
2023/08/20 01:57:43;;;;;;;16.60;8.73;;;16.70;99.90;;;;;;5080511;28;20040;-57
2023/08/20 02:00:09;;;;;;;13.43;8.68;;;16.70;99.90;;;;;;5074843;28;20041;-57
2023/08/20 02:02:35;;;;;;;17.02;9.70;;;16.60;99.90;;;;;;5076028;28;20116;-57
2023/08/20 02:05:01;;;;;;;12.52;9.13;;;16.60;99.90;;;;;;5070262;28;20086;-57
2023/08/20 02:07:27;;;;;;;13.52;9.57;;;16.60;99.90;;;;;;5071111;28;20041;-58
2023/08/20 02:09:52;;;;;;;18.52;9.55;;;16.60;99.90;;;;;;5079143;28;20039;-58
2023/08/20 02:12:18;;;;;;;15.35;9.05;;;16.60;99.90;;;;;;5071161;28;20059;-57
2023/08/20 02:14:44;;;;;;;17.98;9.40;;;16.60;99.90;;;;;;5088344;28;20301;-57
2023/08/20 02:17:12;;;;;;;18.52;8.82;;;16.70;99.90;;;;;;5074702;28;20080;-57
2023/08/20 02:19:38;;;;;;;16.08;9.63;;;16.70;99.90;;;;;;5072672;28;20049;-58
2023/08/20 02:22:04;;;;;;;19.83;8.60;;;16.70;99.90;;;;;;5077545;28;20037;-57
2023/08/20 02:24:30;;;;;;;15.57;8.38;;;16.70;99.90;;;;;;5092318;28;20080;-57
2023/08/20 02:26:55;;;;;;;13.18;8.45;;;16.70;99.90;;;;;;5074069;28;20060;-57
2023/08/20 02:29:21;;;;;;;16.58;8.65;;;16.70;99.90;;;;;;5077038;28;20059;-58
2023/08/20 02:31:47;;;;;;;12.50;8.68;;;16.60;99.90;;;;;;5079613;28;20087;-57
2023/08/20 02:34:12;;;;;;;13.23;8.10;;;16.60;99.90;;;;;;5079044;28;20113;-57
2023/08/20 02:36:38;;;;;;;12.65;8.50;;;16.60;99.90;;;;;;5070843;28;20072;-56
2023/08/20 02:39:07;;;;;;;13.30;9.30;;;16.60;99.90;;;;;;5070826;28;20044;-57
2023/08/20 02:41:36;;;;;;;14.40;8.80;;;16.60;99.90;;;;;;5066908;28;20363;-57
2023/08/20 02:44:05;;;;;;;15.60;9.88;;;16.50;99.90;;;;;;5081305;28;20061;-57
2023/08/20 02:46:31;;;;;;;14.57;9.55;;;16.50;99.90;;;;;;5093491;28;20048;-57
2023/08/20 02:48:56;;;;;;;13.23;9.75;;;16.40;99.90;;;;;;5080044;28;20045;-57
2023/08/20 02:51:22;;;;;;;19.15;9.55;;;16.30;99.90;;;;;;5077596;28;20098;-57
2023/08/20 02:53:48;;;;;;;17.58;9.95;;;16.30;99.90;;;;;;5091192;28;20498;-57
2023/08/20 02:56:14;;;;;;;15.82;9.07;;;16.20;99.90;;;;;;5073652;28;20567;-57
2023/08/20 02:58:39;;;;;;;14.73;8.55;;;16.20;99.90;;;;;;5081982;28;20064;-57
2023/08/20 03:01:05;;;;;;;12.43;8.88;;;16.20;99.90;;;;;;5082201;28;20044;-56
2023/08/20 03:03:31;;;;;;;14.05;9.88;;;16.20;99.90;;;;;;5079401;28;20048;-57
2023/08/20 03:05:57;;;;;;;15.80;10.15;;;16.20;99.90;;;;;;5074571;28;20534;-57
2023/08/20 03:08:23;;;;;;;16.35;10.48;;;16.20;99.90;;;;;;5075190;28;20052;-57
2023/08/20 03:10:49;;;;;;;18.75;10.02;;;16.20;99.90;;;;;;5090575;28;20072;-57
2023/08/20 03:13:14;;;;;;;15.23;10.23;;;16.20;99.90;;;;;;5066760;28;20040;-57
2023/08/20 03:15:40;;;;;;;20.33;10.57;;;16.20;99.90;;;;;;5082360;28;20104;-57
2023/08/20 03:18:06;;;;;;;20.75;10.77;;;16.20;99.90;;;;;;5076444;28;20693;-57
2023/08/20 03:20:32;;;;;;;18.20;12.02;;;16.20;99.90;;;;;;5064042;28;20088;-56
2023/08/20 03:22:58;;;;;;;21.42;11.75;;;16.20;99.90;;;;;;5072537;28;20403;-57
2023/08/20 03:25:24;;;;;;;19.45;11.70;;;16.10;99.90;;;;;;5102758;28;20061;-57
2023/08/20 03:27:51;;;;;;;17.38;11.43;;;16.10;99.90;;;;;;5081848;28;20069;-57
2023/08/20 03:30:16;;;;;;;17.75;12.20;;;16.10;99.90;;;;;;5084311;28;20065;-58
2023/08/20 03:32:42;;;;;;;21.40;12.27;;;16.10;99.90;;;;;;5068599;28;20036;-56
2023/08/20 03:35:08;;;;;;;20.98;13.07;;;16.10;99.90;;;;;;5081335;28;20103;-57
2023/08/20 03:37:34;;;;;;;19.88;12.30;;;16.10;99.90;;;;;;5081515;28;20036;-57
2023/08/20 03:39:59;;;;;;;21.45;13.07;;;16.10;99.90;;;;;;5078987;28;20041;-57
2023/08/20 03:42:25;;;;;;;20.77;13.27;;;16.10;99.90;;;;;;5061580;28;20171;-57
2023/08/20 03:44:51;;;;;;;20.58;14.30;;;16.00;99.90;;;;;;5081477;28;20048;-57
2023/08/20 03:47:20;;;;;;;22.17;13.23;;;16.00;99.90;;;;;;5080106;28;20100;-57
2023/08/20 03:49:46;;;;;;;15.90;13.68;;;16.00;99.90;;;;;;5083011;28;20041;-57
2023/08/20 03:52:12;;;;;;;20.23;14.27;;;16.00;99.90;;;;;;5081950;28;20100;-57
2023/08/20 03:54:38;;;;;;;28.67;13.88;;;16.00;99.90;;;;;;5083387;28;20051;-56
2023/08/20 03:57:03;;;;;;;23.52;14.18;;;16.00;99.90;;;;;;5081085;28;20048;-57
2023/08/20 03:59:30;;;;;;;27.38;14.95;;;16.00;99.90;;;;;;5081031;28;20104;-57
2023/08/20 04:01:56;;;;;;;21.75;14.18;;;16.00;99.90;;;;;;5081731;28;20048;-57
2023/08/20 04:04:22;;;;;;;18.67;13.95;;;16.00;99.90;;;;;;5080804;28;20063;-57
2023/08/20 04:06:48;;;;;;;22.83;13.90;;;16.00;99.90;;;;;;5080223;28;20109;-57
2023/08/20 04:09:14;;;;;;;18.70;13.88;;;16.00;99.90;;;;;;5080947;28;20102;-57
2023/08/20 04:11:39;;;;;;;20.52;13.60;;;16.00;99.90;;;;;;5091240;28;20404;-58
2023/08/20 04:14:05;;;;;;;19.30;13.48;;;16.00;99.90;;;;;;5076654;28;20028;-56
2023/08/20 04:16:31;;;;;;;20.58;13.32;;;16.00;99.90;;;;;;5072578;28;20049;-57
2023/08/20 04:18:56;;;;;;;22.73;13.13;;;16.00;99.90;;;;;;5084187;28;20041;-56
2023/08/20 04:21:22;;;;;;;25.50;14.40;;;16.00;99.90;;;;;;5076625;28;20111;-57
2023/08/20 04:23:48;;;;;;;19.10;13.88;;;16.00;99.90;;;;;;5082374;28;20036;-57
2023/08/20 04:26:14;;;;;;;24.92;14.32;;;16.00;99.90;;;;;;5075467;28;20040;-57
2023/08/20 04:28:40;;;;;;;22.33;13.77;;;16.00;99.90;;;;;;5079017;28;20045;-57
2023/08/20 04:31:05;;;;;;;17.73;13.23;;;16.00;99.90;;;;;;5083820;28;20036;-57
2023/08/20 04:33:31;;;;;;;22.15;13.32;;;15.90;99.90;;;;;;5080531;28;20039;-57
2023/08/20 04:35:57;;;;;;;19.90;12.88;;;17.00;99.90;;;;;;5071082;28;20556;-57
2023/08/20 04:38:22;;;;;;;21.67;12.98;;;15.90;99.90;;;;;;5067403;28;20032;-57
2023/08/20 04:40:49;;;;;;;18.77;13.00;;;15.90;99.90;;;;;;5072624;28;20036;-57
2023/08/20 04:43:15;;;;;;;16.42;12.27;;;15.90;99.90;;;;;;5074714;28;20078;-57
2023/08/20 04:45:41;;;;;;;22.15;13.05;;;15.90;99.90;;;;;;5089581;28;20051;-57
2023/08/20 04:48:08;;;;;;;18.80;11.98;;;16.00;99.90;;;;;;5086570;28;20040;-56
2023/08/20 04:50:33;;;;;;;15.18;11.60;;;16.00;99.90;;;;;;5077564;28;20648;-57
2023/08/20 04:53:00;;;;;;;20.70;11.95;;;15.90;99.90;;;;;;5075090;28;20044;-57
2023/08/20 04:55:26;;;;;;;17.13;11.57;;;15.90;99.90;;;;;;5079277;28;20048;-57
2023/08/20 04:57:52;;;;;;;16.48;11.50;;;16.00;99.90;;;;;;5066025;28;20061;-56
2023/08/20 05:00:18;;;;;;;19.02;11.68;;;16.00;99.90;;;;;;5060115;28;20041;-57
2023/08/20 05:02:43;;;;;;;21.20;11.77;;;16.00;99.90;;;;;;5071645;28;20066;-57
2023/08/20 05:05:10;;;;;;;18.23;11.30;;;16.00;99.90;;;;;;5079558;28;20048;-56
2023/08/20 05:07:36;;;;;;;16.95;10.18;;;16.00;99.90;;;;;;5081401;28;20040;-58
2023/08/20 05:10:02;;;;;;;18.13;10.82;;;16.00;99.90;;;;;;5066348;28;20048;-57
2023/08/20 05:12:28;;;;;;;18.75;10.25;;;16.00;99.90;;;;;;5070733;28;20036;-56
2023/08/20 05:14:54;;;;;;;16.83;10.65;;;16.00;99.90;;;;;;5081382;28;20105;-57
2023/08/20 05:17:20;;;;;;;16.65;9.95;;;16.00;99.90;;;;;;5080972;28;20067;-57
2023/08/20 05:19:45;;;;;;;19.70;9.95;;;16.00;99.90;;;;;;5084108;28;20040;-58
2023/08/20 05:22:11;;;;;;;19.10;9.05;;;16.00;99.90;;;;;;5078536;28;20096;-57
2023/08/20 05:24:38;;;;;;;13.20;8.68;;;16.10;99.90;;;;;;5078789;28;20041;-57
2023/08/20 05:27:14;;;;;;;17.27;9.88;;;16.10;99.90;;;;;;5076118;28;20032;-57
2023/08/20 05:29:40;;;;;;;17.35;8.80;;;16.10;99.90;;;;;;5079654;28;20043;-57
2023/08/20 05:32:07;;;;;;;18.35;8.93;;;16.10;99.90;;;;;;5073166;28;20068;-57
2023/08/20 05:34:33;;;;;;;15.18;8.15;;;16.20;99.90;;;;;;5077028;28;20036;-57
2023/08/20 05:36:59;;;;;;;16.23;8.95;;;16.20;99.90;;;;;;5073402;28;20036;-56
2023/08/20 05:39:25;;;;;;;15.73;8.45;;;16.20;99.90;;;;;;5080046;28;20071;-56
2023/08/20 05:41:52;;;;;;;15.32;8.70;;;16.20;99.90;;;;;;5082484;28;20479;-57
2023/08/20 05:44:18;;;;;;;14.48;8.05;;;16.30;99.90;;;;;;5073458;28;20074;-56
2023/08/20 05:46:44;;;;;;;17.77;8.15;;;16.30;99.90;;;;;;5067556;28;20048;-57
2023/08/20 05:49:09;;;;;;;12.18;7.50;;;16.30;99.90;;;;;;5081292;28;20527;-57
2023/08/20 05:51:35;;;;;;;17.52;8.18;;;16.30;99.90;;;;;;5080590;28;20097;-57
2023/08/20 05:54:01;;;;;;;16.55;8.13;;;16.40;99.90;;;;;;5080973;28;20072;-57
2023/08/20 05:56:26;;;;;;;16.13;7.72;;;16.40;99.90;;;;;;5082487;28;20036;-57
2023/08/20 05:58:52;;;;;;;19.70;8.77;;;16.50;99.90;;;;;;5074369;28;20079;-57
2023/08/20 06:01:18;;;;;;;18.02;7.78;;;16.50;99.90;;;;;;5076887;28;20067;-57
2023/08/20 06:03:43;;;;;;;16.67;7.80;;;16.60;99.90;;;;;;5076541;28;20036;-57
2023/08/20 06:06:09;;;;;;;18.70;8.98;;;16.60;99.90;;;;;;5077348;28;20041;-57
2023/08/20 06:08:35;;;;;;;16.27;8.52;;;16.60;99.90;;;;;;5076973;28;20723;-57
2023/08/20 06:11:00;;;;;;;19.17;8.43;;;16.70;99.90;;;;;;5074390;28;20040;-57
2023/08/20 06:13:26;;;;;;;15.57;7.93;;;16.80;99.90;;;;;;5075837;28;20094;-57
2023/08/20 06:15:51;;;;;;;21.95;8.20;;;16.80;99.90;;;;;;5071039;28;20418;-57
2023/08/20 06:18:17;;;;;;;15.77;8.40;;;16.90;99.90;;;;;;5069066;28;20032;-57
2023/08/20 06:20:43;;;;;;;14.90;8.13;;;16.90;99.90;;;;;;5069577;28;20087;-58
2023/08/20 06:23:09;;;;;;;17.48;8.18;;;17.00;99.90;;;;;;5086553;28;20048;-58
2023/08/20 06:25:34;;;;;;;15.85;7.75;;;17.00;99.90;;;;;;5081177;28;20040;-59
2023/08/20 06:28:00;;;;;;;14.63;7.63;;;17.10;99.90;;;;;;5082377;28;20040;-59
2023/08/20 06:30:26;;;;;;;17.90;7.85;;;17.20;99.90;;;;;;5067094;28;20118;-57
2023/08/20 06:32:51;;;;;;;15.13;7.55;;;17.20;99.90;;;;;;5078674;28;20045;-57
2023/08/20 06:35:17;;;;;;;15.45;7.90;;;17.20;99.90;;;;;;5077858;28;20045;-56
2023/08/20 06:37:43;;;;;;;16.23;7.07;;;17.40;99.90;;;;;;5071412;28;20060;-57
2023/08/20 06:40:09;;;;;;;15.30;7.47;;;17.40;99.90;;;;;;5066511;28;20463;-57
2023/08/20 06:42:35;;;;;;;19.20;7.40;;;17.50;99.90;;;;;;5070875;28;20041;-56
2023/08/20 06:45:00;;;;;;;16.77;7.20;;;17.60;99.90;;;;;;5061448;28;20053;-56
2023/08/20 06:47:26;;;;;;;13.57;6.25;;;17.60;99.90;;;;;;5072255;28;20052;-56
2023/08/20 06:49:52;;;;;;;18.23;6.03;;;17.80;99.90;;;;;;5092737;28;20036;-56
2023/08/20 06:52:17;;;;;;;11.73;5.05;;;18.10;99.90;;;;;;5067956;28;20086;-56
2023/08/20 06:54:44;;;;;;;16.30;5.13;;;18.60;99.90;;;;;;5066739;28;20120;-57
2023/08/20 06:57:10;;;;;;;15.07;4.90;;;19.00;99.90;;;;;;5078715;28;20048;-56
2023/08/20 06:59:36;;;;;;;10.68;4.63;;;19.60;99.90;;;;;;5078532;28;20043;-56
2023/08/20 07:02:03;;;;;;;14.27;4.60;;;20.00;99.90;;;;;;5082338;28;20452;-57
2023/08/20 07:04:29;;;;;;;13.23;4.47;;;20.30;99.90;;;;;;5074444;28;20037;-57
2023/08/20 07:06:54;;;;;;;13.48;4.90;;;20.70;99.90;;;;;;5075918;28;20109;-58
2023/08/20 07:09:20;;;;;;;12.18;4.35;;;21.00;99.90;;;;;;5069911;28;20465;-57
2023/08/20 07:11:46;;;;;;;12.02;4.57;;;21.30;99.90;;;;;;5077619;28;20133;-57
2023/08/20 07:14:12;;;;;;;15.88;4.50;;;21.60;99.90;;;;;;5083213;28;20132;-57
2023/08/20 07:16:37;;;;;;;12.48;4.65;;;21.80;99.90;;;;;;5070752;28;20112;-57
2023/08/20 07:19:03;;;;;;;17.88;4.63;;;22.00;99.90;;;;;;5047578;28;20052;-57
2023/08/20 07:21:29;;;;;;;12.35;3.83;;;22.20;99.90;;;;;;5082980;28;20041;-58
2023/08/20 07:23:54;;;;;;;8.48;4.03;;;22.30;99.90;;;;;;5078947;28;20044;-58
2023/08/20 07:26:21;;;;;;;11.18;4.72;;;22.50;99.90;;;;;;5077361;28;20043;-57
2023/08/20 07:28:56;;;;;;;12.45;4.70;;;22.60;99.90;;;;;;5080498;28;20467;-59
2023/08/20 07:31:25;;;;;;;9.30;4.23;;;22.70;99.90;;;;;;5065065;28;20032;-58
2023/08/20 07:33:52;;;;;;;11.25;4.40;;;22.80;99.90;;;;;;5081103;28;20900;-58
2023/08/20 07:36:19;;;;;;;15.65;4.85;;;22.80;99.90;;;;;;5073322;28;20056;-57
2023/08/20 07:38:45;;;;;;;13.73;4.75;;;22.90;99.90;;;;;;5070189;28;20045;-58
2023/08/20 07:41:11;;;;;;;15.18;4.82;;;22.90;99.90;;;;;;5068418;28;20098;-57
2023/08/20 07:43:38;;;;;;;15.23;4.40;;;22.90;99.90;;;;;;5062813;28;20053;-57
2023/08/20 07:46:05;;;;;;;12.75;4.55;;;23.00;99.90;;;;;;5088851;28;20126;-57
2023/08/20 07:48:30;;;;;;;12.70;4.63;;;23.10;99.90;;;;;;5075032;28;20044;-58
2023/08/20 07:50:56;;;;;;;18.00;4.82;;;23.30;99.90;;;;;;5078886;28;20044;-58
2023/08/20 07:53:22;;;;;;;15.30;4.95;;;23.30;99.90;;;;;;5076650;28;20048;-58
2023/08/20 07:55:48;;;;;;;14.63;4.50;;;23.20;99.90;;;;;;5070730;28;20045;-58
2023/08/20 07:58:13;;;;;;;16.95;4.38;;;23.10;99.90;;;;;;5078780;28;20043;-57
2023/08/20 08:00:39;;;;;;;16.65;4.22;;;23.10;99.90;;;;;;5075857;28;20037;-57
2023/08/20 08:03:05;;;;;;;13.57;4.35;;;23.00;99.90;;;;;;5072055;28;20131;-57
2023/08/20 08:05:30;;;;;;;17.65;4.40;;;22.80;99.90;;;;;;5086010;28;20153;-57
2023/08/20 08:07:56;;;;;;;12.48;4.53;;;22.70;99.90;;;;;;5065202;28;21794;-57
2023/08/20 08:10:22;;;;;;;11.35;4.60;;;22.60;99.90;;;;;;5077832;28;20035;-57
2023/08/20 08:12:47;;;;;;;14.32;4.78;;;22.40;99.90;;;;;;5058021;28;20071;-57
2023/08/20 08:15:13;;;;;;;12.40;4.57;;;22.30;99.90;;;;;;5066203;28;20029;-57
2023/08/20 08:17:39;;;;;;;12.07;4.22;;;22.10;99.90;;;;;;5056096;28;20089;-56
2023/08/20 08:20:06;;;;;;;14.82;4.82;;;21.90;99.90;;;;;;5066988;28;20055;-57
2023/08/20 08:22:31;;;;;;;13.57;5.03;;;21.70;99.90;;;;;;5073150;28;20040;-57
2023/08/20 08:24:57;;;;;;;16.95;5.13;;;21.60;99.90;;;;;;5074331;28;20489;-56
2023/08/20 08:27:23;;;;;;;12.23;5.20;;;21.50;99.90;;;;;;5077325;28;20045;-56
2023/08/20 08:29:48;;;;;;;18.27;4.93;;;21.50;99.90;;;;;;5064648;28;20256;-55
2023/08/20 08:32:14;;;;;;;21.30;4.90;;;21.40;99.90;;;;;;5076733;28;20170;-56
2023/08/20 08:34:40;;;;;;;14.35;4.70;;;21.40;99.90;;;;;;5061208;28;20117;-56
2023/08/20 08:37:05;;;;;;;15.85;4.50;;;21.40;99.90;;;;;;5063320;28;20498;-57
2023/08/20 08:39:32;;;;;;;14.50;4.57;;;21.40;99.90;;;;;;5067646;28;20270;-56
2023/08/20 08:42:05;;;;;;;11.40;4.03;;;21.40;99.90;;;;;;5061186;28;20504;-56
2023/08/20 08:44:36;;;;;;;14.00;4.47;;;21.40;99.90;;;;;;5079883;28;20055;-56
2023/08/20 08:47:03;;;;;;;16.60;4.57;;;21.50;99.90;;;;;;5080963;28;20033;-56
2023/08/20 08:49:30;;;;;;;11.68;3.63;;;21.40;99.90;;;;;;5081874;28;20029;-57
2023/08/20 08:51:59;;;;;;;11.55;3.15;;;21.50;99.90;;;;;;5065786;28;20052;-56
2023/08/20 08:54:26;;;;;;;11.13;3.10;;;21.50;99.90;;;;;;5074606;28;20045;-56
2023/08/20 08:56:52;;;;;;;9.73;3.35;;;21.50;99.90;;;;;;5080744;28;20041;-56
2023/08/20 08:59:19;;;;;;;15.05;4.00;;;21.50;99.90;;;;;;5067959;28;20051;-57
2023/08/20 09:01:45;;;;;;;10.63;3.35;;;21.40;99.90;;;;;;5072724;28;20041;-56
2023/08/20 09:04:11;;;;;;;11.52;3.70;;;21.50;99.90;;;;;;5079148;28;20037;-56
2023/08/20 09:06:55;;;;;;;9.32;2.92;;;21.50;99.90;;;;;;5081415;28;20043;-57
2023/08/20 09:09:21;;;;;;;15.40;3.58;;;21.50;99.90;;;;;;5060864;28;20071;-56
2023/08/20 09:11:48;;;;;;;13.00;3.20;;;21.50;99.90;;;;;;5080424;28;20041;-56
2023/08/20 09:14:23;;;;;;;12.90;3.40;;;21.60;99.90;;;;;;5076330;28;20059;-56
2023/08/20 09:16:56;;;;;;;11.80;3.38;;;21.60;99.90;;;;;;5079117;28;20072;-56
2023/08/20 09:19:21;;;;;;;11.35;3.65;;;21.60;99.90;;;;;;5078167;28;20039;-56
2023/08/20 09:21:48;;;;;;;11.90;3.55;;;21.60;99.90;;;;;;5079730;28;20420;-56
2023/08/20 09:24:14;;;;;;;11.88;3.30;;;21.70;99.90;;;;;;5067653;28;20041;-57
2023/08/20 09:26:44;;;;;;;12.82;3.63;;;21.70;99.90;;;;;;5091177;28;20045;-57
2023/08/20 09:29:10;;;;;;;11.55;2.90;;;21.70;99.90;;;;;;5080933;28;20095;-56
2023/08/20 09:31:39;;;;;;;10.32;2.90;;;21.80;99.90;;;;;;5087077;28;20602;-57
2023/08/20 09:34:05;;;;;;;14.10;3.45;;;21.80;99.90;;;;;;5083802;28;20037;-58
2023/08/20 09:36:33;;;;;;;11.05;3.35;;;21.80;99.90;;;;;;5071911;28;20068;-57
2023/08/20 09:38:59;;;;;;;8.45;3.05;;;21.90;99.90;;;;;;5062593;28;20040;-57
2023/08/20 09:41:25;;;;;;;10.43;2.60;;;21.90;99.90;;;;;;5084900;28;20036;-57
2023/08/20 09:43:57;;;;;;;7.85;1.98;;;22.00;99.90;;;;;;5074310;28;20440;-57
2023/08/20 09:46:31;;;;;;;7.40;1.90;;;22.00;99.90;;;;;;5060147;28;20083;-57
2023/08/20 09:48:57;;;;;;;9.35;2.17;;;22.00;99.90;;;;;;5062647;28;20076;-57
2023/08/20 09:51:28;;;;;;;10.02;2.17;;;22.00;99.90;;;;;;5079525;28;20040;-56
2023/08/20 09:54:10;;;;;;;13.38;2.65;;;22.00;99.90;;;;;;5076288;28;20101;-56
2023/08/20 09:56:39;;;;;;;7.88;2.25;;;22.00;99.90;;;;;;5068263;28;20040;-56
2023/08/20 09:59:05;;;;;;;9.00;2.00;;;22.00;99.90;;;;;;5091129;28;20137;-54
2023/08/20 10:01:31;;;;;;;9.75;2.00;;;22.10;99.90;;;;;;5079910;28;20081;-56
2023/08/20 10:03:57;;;;;;;5.65;1.25;;;22.10;99.90;;;;;;5067149;28;20033;-56
2023/08/20 10:06:26;;;;;;;9.30;2.35;;;22.10;99.90;;;;;;5061594;28;20048;-56
2023/08/20 10:08:54;;;;;;;7.72;1.70;;;22.10;99.90;;;;;;5059048;28;20036;-56
2023/08/20 10:11:19;;;;;;;8.65;2.42;;;22.10;99.90;;;;;;5069909;28;20055;-58
2023/08/20 10:13:45;;;;;;;6.15;1.67;;;22.10;99.90;;;;;;5076142;28;20037;-56
2023/08/20 10:16:20;;;;;;;8.85;2.10;;;22.10;99.90;;;;;;5076793;28;20036;-56
2023/08/20 10:18:47;;;;;;;10.80;2.08;;;22.10;99.90;;;;;;5080900;28;20054;-56
2023/08/20 10:21:13;;;;;;;6.47;1.80;;;22.10;99.90;;;;;;5076670;28;20036;-56
2023/08/20 10:23:44;;;;;;;7.95;2.00;;;22.20;99.90;;;;;;5080236;28;20090;-58
2023/08/20 10:26:11;;;;;;;6.43;1.80;;;22.10;99.90;;;;;;5078729;28;20408;-56
2023/08/20 10:28:37;;;;;;;8.63;1.80;;;22.20;99.90;;;;;;5063912;28;20552;-59
2023/08/20 10:31:11;;;;;;;7.57;1.70;;;22.20;99.90;;;;;;5059927;28;20045;-59
2023/08/20 10:33:59;;;;;;;6.70;1.92;;;22.20;99.90;;;;;;5064321;28;20125;-58
2023/08/20 10:36:31;;;;;;;8.40;1.77;;;22.20;99.90;;;;;;5066427;28;20070;-58
2023/08/20 10:38:58;;;;;;;10.00;2.00;;;22.30;99.90;;;;;;5073484;28;20044;-59
2023/08/20 10:41:28;;;;;;;8.00;1.80;;;22.30;99.90;;;;;;5079332;28;20047;-60
2023/08/20 10:43:58;;;;;;;7.35;1.80;;;22.40;99.90;;;;;;5073869;28;20086;-59
2023/08/20 10:46:25;;;;;;;9.43;2.30;;;22.40;99.90;;;;;;5070763;28;20037;-59
2023/08/20 10:48:52;;;;;;;5.10;1.70;;;22.50;99.90;;;;;;5071915;28;20032;-59
2023/08/20 10:51:25;;;;;;;8.38;2.15;;;22.50;99.90;;;;;;5076547;28;20056;-59
2023/08/20 10:54:00;;;;;;;8.70;1.77;;;22.60;99.90;;;;;;5072897;28;20442;-59
2023/08/20 10:56:46;;;;;;;12.13;2.30;;;22.70;99.90;;;;;;5066072;28;20072;-59
2023/08/20 10:59:21;;;;;;;7.47;2.22;;;22.80;99.90;;;;;;5069776;28;20041;-59
2023/08/20 11:01:48;;;;;;;;;;;22.90;99.90;;;;;;5063140;28;20044;-59
2023/08/20 11:04:16;;;;;;;9.13;2.05;;;23.00;99.90;;;;;;5074570;28;19935;-59
2023/08/20 11:06:43;;;;;;;11.25;2.70;;;23.00;99.90;;;;;;5079641;28;20051;-59
2023/08/20 11:09:10;;;;;;;13.20;2.35;;;23.10;99.90;;;;;;5072114;28;20032;-59
2023/08/20 11:11:39;;;;;;;11.27;2.65;;;23.10;99.90;;;;;;5059832;28;20645;-60
2023/08/20 11:14:07;;;;;;;11.13;2.17;;;23.20;99.90;;;;;;5065105;28;20499;-58
2023/08/20 11:16:34;;;;;;;9.68;2.47;;;23.10;99.90;;;;;;5076966;28;20048;-58
2023/08/20 11:18:59;;;;;;;8.48;2.15;;;23.10;99.90;;;;;;5075204;28;21266;-59
2023/08/20 11:21:25;;;;;;;8.65;2.30;;;23.10;99.90;;;;;;5076072;28;20052;-59
2023/08/20 11:23:52;;;;;;;11.00;2.10;;;23.10;99.90;;;;;;5080786;28;20036;-59
2023/08/20 11:26:18;;;;;;;9.75;2.10;;;23.10;99.90;;;;;;5066497;28;20036;-58
2023/08/20 11:28:47;;;;;;;8.50;2.00;;;23.10;99.90;;;;;;5081257;28;20040;-59
2023/08/20 11:31:13;;;;;;;8.35;1.88;;;23.10;99.90;;;;;;5083406;28;20594;-59
2023/08/20 11:33:39;;;;;;;7.10;1.80;;;23.10;99.90;;;;;;5080959;28;20056;-59
2023/08/20 11:36:06;;;;;;;7.35;1.88;;;23.10;99.90;;;;;;5082300;28;20067;-59
2023/08/20 11:38:32;;;;;;;11.15;2.00;;;23.00;99.90;;;;;;5086738;28;20123;-59
2023/08/20 11:40:59;;;;;;;8.63;1.92;;;23.00;99.90;;;;;;5063390;28;20686;-59
2023/08/20 11:43:27;;;;;;;9.52;1.95;;;23.00;99.90;;;;;;5062319;28;20658;-58
2023/08/20 11:45:54;;;;;;;6.00;1.75;;;23.00;99.90;;;;;;5063276;28;20049;-59
2023/08/20 11:48:21;;;;;;;7.30;1.80;;;23.00;99.90;;;;;;5067314;28;20045;-59
2023/08/20 11:50:47;;;;;;;9.30;2.05;;;23.10;99.90;;;;;;5071829;28;20044;-58
2023/08/20 11:53:13;;;;;;;11.23;2.00;;;23.10;99.90;;;;;;5085172;28;20082;-58
2023/08/20 11:55:41;;;;;;;9.00;1.80;;;23.20;99.90;;;;;;5091092;28;21020;-58
2023/08/20 11:58:11;;;;;;;8.45;2.45;;;23.20;99.90;;;;;;5079967;28;20092;-58
2023/08/20 12:00:36;;;;;;;9.20;2.28;;;23.20;99.90;;;;;;5079266;28;20087;-58
2023/08/20 12:03:03;;;;;;;8.20;2.03;;;23.30;99.90;;;;;;5079504;28;20080;-59
2023/08/20 12:05:30;;;;;;;7.97;2.42;;;23.30;99.90;;;;;;5061698;28;20045;-58
2023/08/20 12:08:00;;;;;;;8.63;2.17;;;23.30;99.90;;;;;;5078150;28;20056;-58
2023/08/20 12:10:29;;;;;;;12.73;2.47;;;23.40;99.90;;;;;;5081024;28;20044;-60
2023/08/20 12:12:56;;;;;;;7.97;2.28;;;23.40;99.90;;;;;;5085763;28;20521;-58
2023/08/20 12:15:23;;;;;;;7.07;2.30;;;23.40;99.90;;;;;;5084411;28;20474;-58
2023/08/20 12:18:04;;;;;;;7.57;1.95;;;23.50;99.90;;;;;;5079266;28;20045;-58
2023/08/20 12:20:31;;;;;;;9.95;2.00;;;23.40;99.90;;;;;;5079614;28;20052;-59
2023/08/20 12:23:04;;;;;;;8.55;1.80;;;23.40;99.90;;;;;;5080067;28;20056;-58
2023/08/20 12:25:33;;;;;;;7.53;2.15;;;23.30;99.90;;;;;;5062911;28;20049;-58
2023/08/20 12:27:59;;;;;;;9.00;1.95;;;23.40;99.90;;;;;;5060949;28;20452;-58
2023/08/20 12:30:25;;;;;;;9.57;1.73;;;23.40;99.90;;;;;;5061011;28;20440;-58
2023/08/20 12:32:50;;;;;;;6.15;1.50;;;23.40;99.90;;;;;;5062786;28;20041;-58
2023/08/20 12:35:16;;;;;;;9.95;1.90;;;23.50;99.90;;;;;;5074136;28;20071;-58
2023/08/20 12:37:42;;;;;;;6.95;1.60;;;23.60;99.90;;;;;;5081741;28;20072;-57